createdAt,value
2023-01-06T00:01:39.371Z,7.40
2023-01-06T00:06:42.607Z,7.40
2023-01-06T00:11:45.996Z,7.30
2023-01-06T00:16:50.620Z,7.50
2023-01-06T00:21:53.887Z,7.40
2023-01-06T00:26:57.217Z,7.40
2023-01-06T00:32:02.738Z,7.40
2023-01-06T00:37:06.031Z,7.50
2023-01-06T00:42:09.273Z,7.60
2023-01-06T00:47:14.720Z,7.50
2023-01-06T00:52:18.095Z,7.50
2023-01-06T00:57:21.351Z,7.40
2023-01-06T01:02:26.137Z,7.50
2023-01-06T01:07:29.515Z,7.50
2023-01-06T01:12:34.534Z,7.60
2023-01-06T01:17:41.108Z,7.80
2023-01-06T01:22:44.466Z,7.70
2023-01-06T01:27:47.760Z,7.40
2023-01-06T01:32:52.370Z,7.40
2023-01-06T01:37:55.651Z,7.20
2023-01-06T01:42:59.018Z,7.10
2023-01-06T01:48:08.303Z,7.20
2023-01-06T01:53:15.943Z,7.20
2023-01-06T01:58:24.251Z,7.30
2023-01-06T02:03:29.351Z,7.30
2023-01-06T02:08:37.607Z,7.20
2023-01-06T02:13:44.424Z,7.20
2023-01-06T02:19:00.778Z,7.20
2023-01-06T02:24:54.954Z,7.30
2023-01-06T02:30:24.303Z,7.30
2023-01-06T02:35:56.009Z,7.40
2023-01-06T02:41:10.970Z,7.40
2023-01-06T02:46:26.164Z,7.20
2023-01-06T02:51:37.659Z,8.00
2023-01-06T02:56:48.152Z,7.10
2023-01-06T03:01:55.625Z,6.90
2023-01-06T03:07:03.496Z,7.00
2023-01-06T03:12:15.625Z,6.80
2023-01-06T03:17:19.599Z,6.70
2023-01-06T03:22:25.403Z,6.70
2023-01-06T03:27:29.222Z,6.70
2023-01-06T03:32:41.510Z,6.80
2023-01-06T03:37:54.766Z,6.70
2023-01-06T03:43:16.552Z,6.60
2023-01-06T03:48:32.559Z,6.80
2023-01-06T03:53:42.498Z,6.60
2023-01-06T03:58:49.713Z,6.30
2023-01-06T04:03:53.945Z,6.60
2023-01-06T04:09:00.113Z,6.80
2023-01-06T04:14:04.065Z,6.80
2023-01-06T04:19:07.427Z,6.70
2023-01-06T04:24:12.827Z,6.60
2023-01-06T04:29:16.404Z,6.60
2023-01-06T04:34:19.969Z,6.90
2023-01-06T04:39:25.749Z,6.50
2023-01-06T04:44:29.000Z,6.60
2023-01-06T04:49:32.387Z,6.60
2023-01-06T04:54:37.110Z,6.60
2023-01-06T04:59:40.331Z,6.60
2023-01-06T05:04:48.089Z,6.60
2023-01-06T05:09:52.852Z,6.80
2023-01-06T05:14:56.132Z,6.80
2023-01-06T05:19:59.361Z,6.60
2023-01-06T05:25:04.210Z,6.60
2023-01-06T05:30:08.669Z,6.60
2023-01-06T05:35:11.958Z,6.80
2023-01-06T05:40:16.616Z,7.40
2023-01-06T05:45:19.829Z,6.80
2023-01-06T05:50:23.090Z,6.80
2023-01-06T05:55:28.486Z,6.80
2023-01-06T06:00:31.740Z,6.70
2023-01-06T06:05:35.004Z,6.80
2023-01-06T06:10:39.629Z,6.80
2023-01-06T06:15:44.717Z,6.70
2023-01-06T06:20:48.032Z,6.90
2023-01-06T06:25:52.801Z,6.70
2023-01-06T06:30:56.109Z,6.80
2023-01-06T06:35:59.703Z,6.70
2023-01-06T06:41:04.347Z,6.80
2023-01-06T06:46:08.312Z,6.70
2023-01-06T06:51:13.633Z,6.80
2023-01-06T06:56:19.965Z,6.70
2023-01-06T07:01:23.296Z,6.60
2023-01-06T07:06:28.986Z,6.70
2023-01-06T07:11:33.668Z,6.70
2023-01-06T07:16:36.937Z,6.60
2023-01-06T07:21:40.202Z,6.70
2023-01-06T07:26:44.800Z,6.80
2023-01-06T07:31:48.001Z,6.60
2023-01-06T07:36:51.266Z,6.80
2023-01-06T07:41:55.850Z,6.90
2023-01-06T07:46:59.060Z,6.80
2023-01-06T07:52:02.292Z,6.80
2023-01-06T07:57:07.864Z,6.80
2023-01-06T08:02:11.879Z,6.80
2023-01-06T08:07:15.968Z,7.00
2023-01-06T08:12:20.576Z,7.00
2023-01-06T08:17:23.845Z,7.10
2023-01-06T08:22:27.266Z,6.90
2023-01-06T08:27:31.842Z,7.00
2023-01-06T08:32:35.135Z,9.40
2023-01-06T08:37:38.355Z,7.40
2023-01-06T08:42:42.967Z,7.30
2023-01-06T08:47:46.173Z,7.60
2023-01-06T08:52:49.401Z,7.50
2023-01-06T08:57:55.054Z,7.60
2023-01-06T09:02:58.525Z,7.30
2023-01-06T09:08:01.804Z,7.20
2023-01-06T09:13:07.497Z,5.10
2023-01-06T09:18:11.361Z,7.80
2023-01-06T09:23:14.735Z,8.00
2023-01-06T09:28:19.311Z,8.10
2023-01-06T09:33:22.576Z,8.20
2023-01-06T09:38:26.348Z,8.40
2023-01-06T09:43:43.657Z,8.50
2023-01-06T09:48:52.729Z,8.60
2023-01-06T09:53:59.466Z,8.90
2023-01-06T09:59:10.229Z,8.90
2023-01-06T10:04:18.486Z,8.60
2023-01-06T10:09:31.418Z,8.80
2023-01-06T10:14:48.878Z,8.80
2023-01-06T10:20:02.955Z,9.30
2023-01-06T10:25:16.583Z,9.20
2023-01-06T10:30:30.480Z,9.30
2023-01-06T10:35:34.479Z,10.00
2023-01-06T10:40:37.816Z,10.40
2023-01-06T10:45:44.578Z,11.00
2023-01-06T10:50:48.810Z,10.50
2023-01-06T10:55:54.661Z,9.90
2023-01-06T11:01:01.389Z,10.10
2023-01-06T11:06:11.338Z,10.50
2023-01-06T11:11:33.925Z,11.50
2023-01-06T11:16:38.650Z,11.60
2023-01-06T11:21:43.640Z,12.10
2023-01-06T11:26:52.342Z,11.70
2023-01-06T11:31:57.892Z,11.40
2023-01-06T11:37:01.559Z,11.20
2023-01-06T11:42:11.320Z,11.70
2023-01-06T11:47:19.253Z,11.90
2023-01-06T11:52:25.498Z,14.70
2023-01-06T11:57:35.932Z,10.80
2023-01-06T12:02:50.953Z,10.60
2023-01-06T12:07:56.094Z,10.40
2023-01-06T12:12:59.462Z,10.30
2023-01-06T12:18:08.840Z,10.30
2023-01-06T12:23:17.763Z,10.30
2023-01-06T12:28:28.125Z,10.20
2023-01-06T12:33:37.095Z,10.10
2023-01-06T12:38:49.209Z,10.10
2023-01-06T12:43:58.830Z,10.10
2023-01-06T12:49:06.960Z,10.00
2023-01-06T12:54:17.411Z,10.00
2023-01-06T12:59:28.001Z,9.90
2023-01-06T13:04:57.227Z,9.80
2023-01-06T13:10:09.660Z,9.90
2023-01-06T13:15:20.859Z,9.90
2023-01-06T13:20:31.472Z,9.70
2023-01-06T13:25:57.035Z,9.80
2023-01-06T13:31:23.465Z,9.80
2023-01-06T13:36:54.657Z,9.90
2023-01-06T13:42:02.407Z,9.80
2023-01-06T13:47:09.446Z,9.80
2023-01-06T13:52:18.488Z,9.60
2023-01-06T13:57:31.515Z,9.60
2023-01-06T14:03:03.829Z,9.60
2023-01-06T14:08:18.005Z,9.60
2023-01-06T14:13:24.274Z,9.40
2023-01-06T14:18:39.798Z,9.30
2023-01-06T14:23:57.318Z,9.20
2023-01-06T14:29:39.156Z,9.20
2023-01-06T14:34:46.130Z,9.20
2023-01-06T14:39:54.629Z,9.20
2023-01-06T14:45:00.349Z,9.10
2023-01-06T14:50:07.173Z,9.10
2023-01-06T14:55:17.845Z,9.00
2023-01-06T15:00:25.328Z,9.00
2023-01-06T15:05:32.301Z,9.10
2023-01-06T15:10:39.473Z,9.10
2023-01-06T15:15:43.624Z,9.00
2023-01-06T15:20:47.690Z,8.90
2023-01-06T15:25:53.858Z,8.90
2023-01-06T15:30:57.875Z,8.80
2023-01-06T15:36:02.130Z,8.80
2023-01-06T15:41:28.434Z,8.80
2023-01-06T15:46:41.455Z,8.80
2023-01-06T15:51:54.698Z,8.80
2023-01-06T15:57:11.517Z,8.80
2023-01-06T16:02:30.495Z,8.70
2023-01-06T16:07:40.783Z,8.70
2023-01-06T16:12:45.524Z,8.70
2023-01-06T16:17:49.251Z,8.70
2023-01-06T16:22:55.273Z,8.70
2023-01-06T16:28:02.315Z,8.70
2023-01-06T16:33:06.229Z,8.70
2023-01-06T16:38:09.516Z,8.60
2023-01-06T16:43:14.217Z,8.60
2023-01-06T16:48:18.752Z,8.60
2023-01-06T16:53:23.771Z,8.60
2023-01-06T16:58:30.218Z,8.50
2023-01-06T17:03:38.630Z,8.50
2023-01-06T17:08:42.005Z,8.40
2023-01-06T17:13:52.734Z,8.40
2023-01-06T17:18:59.520Z,8.40
2023-01-06T17:24:11.627Z,8.40
2023-01-06T17:29:18.354Z,8.40
2023-01-06T17:34:24.871Z,8.40
2023-01-06T17:39:31.215Z,8.40
2023-01-06T17:44:40.593Z,8.30
2023-01-06T17:49:48.837Z,8.30
2023-01-06T17:55:15.177Z,8.30
2023-01-06T18:00:24.358Z,8.30
2023-01-06T18:06:16.337Z,8.30
2023-01-06T18:11:32.919Z,8.30
2023-01-06T18:16:39.600Z,8.30
2023-01-06T18:21:45.161Z,8.30
2023-01-06T18:26:50.326Z,8.30
2023-01-06T18:31:55.806Z,8.30
2023-01-06T18:37:00.754Z,8.30
2023-01-06T18:42:19.196Z,8.30
2023-01-06T18:47:25.736Z,8.30
2023-01-06T18:52:39.941Z,8.30
2023-01-06T18:57:46.000Z,8.30
2023-01-06T19:02:53.158Z,8.30
2023-01-06T19:07:58.178Z,8.30
2023-01-06T19:13:02.237Z,8.30
2023-01-06T19:18:13.612Z,8.30
2023-01-06T19:23:20.642Z,8.20
2023-01-06T19:28:27.079Z,8.20
2023-01-06T19:33:45.642Z,8.30
2023-01-06T19:38:49.312Z,8.30
2023-01-06T19:43:54.826Z,8.30
2023-01-06T19:49:01.063Z,8.30
2023-01-06T19:54:13.278Z,8.30
2023-01-06T19:59:18.764Z,8.30
2023-01-06T20:04:25.491Z,8.20
2023-01-06T20:09:28.798Z,8.20
2023-01-06T20:14:32.183Z,8.20
2023-01-06T20:19:37.090Z,8.20
2023-01-06T20:24:41.597Z,8.20
2023-01-06T20:29:45.089Z,8.20
2023-01-06T20:34:49.759Z,7.90
2023-01-06T20:39:53.660Z,8.20
2023-01-06T20:44:57.282Z,8.10
2023-01-06T20:50:01.953Z,8.10
2023-01-06T20:55:07.017Z,8.10
2023-01-06T21:00:12.141Z,8.10
2023-01-06T21:05:17.075Z,8.10
2023-01-06T21:10:20.605Z,8.10
2023-01-06T21:15:26.118Z,8.10
2023-01-06T21:20:30.968Z,8.10
2023-01-06T21:25:34.347Z,8.10
2023-01-06T21:30:38.439Z,8.20
2023-01-06T21:35:44.131Z,8.20
2023-01-06T21:40:47.446Z,8.20
2023-01-06T21:45:50.870Z,8.20
2023-01-06T21:50:55.650Z,8.20
2023-01-06T21:55:59.170Z,8.20
2023-01-06T22:01:02.531Z,8.30
2023-01-06T22:06:07.866Z,8.30
2023-01-06T22:11:11.728Z,8.30
2023-01-06T22:16:15.169Z,8.30
2023-01-06T22:21:20.056Z,8.40
2023-01-06T22:26:24.532Z,8.30
2023-01-06T22:31:29.382Z,8.30
2023-01-06T22:36:34.327Z,8.30
2023-01-06T22:41:37.837Z,8.30
2023-01-06T22:46:41.437Z,8.30
2023-01-06T22:51:46.192Z,8.40
2023-01-06T22:56:49.474Z,8.40
2023-01-06T23:01:53.489Z,8.30
2023-01-06T23:06:58.486Z,8.20
2023-01-06T23:12:01.811Z,8.20
2023-01-06T23:17:05.347Z,8.10
2023-01-06T23:22:10.061Z,8.10
2023-01-06T23:27:13.826Z,11.40
2023-01-06T23:32:17.133Z,8.10
2023-01-06T23:37:21.799Z,8.00
2023-01-06T23:42:25.079Z,9.60
2023-01-06T23:47:28.331Z,7.80
2023-01-06T23:52:33.179Z,7.80
2023-01-06T23:57:36.518Z,11.20
